This is the latest recevied weather packets stored in our database for station/object N5ATR. If no packets are shown the sender has not sent any weather packets the latest 10 day(s).
| Time | Temp. | Humidity | Pressure | Rain* | Wind** | Luminosity | Snow |
|---|---|---|---|---|---|---|---|
| 1778116418 | 10.56° C | 54% | 1015.7 hPa | 0 mm | - | 27 W/m² | - |
| 1778116118 | 10° C | 57% | 1016.2 hPa | 0 mm | - | 33 W/m² | - |
| 1778115814 | 10° C | 57% | 1016.1 hPa | 0 mm | - | 12 W/m² | - |
| 1778115511 | 10° C | 59% | 1016.1 hPa | 0 mm | - | 13 W/m² | - |
| 1778115208 | 9.44° C | 61% | 1016 hPa | 0 mm | - | 8 W/m² | - |
| 1778114905 | 8.89° C | 66% | 1015.6 hPa | 1.78 mm | - | 16 W/m² | - |
| 1778114602 | 8.33° C | 71% | 1015.7 hPa | 1.78 mm | - | 28 W/m² | - |
| 1778114299 | 8.89° C | 71% | 1015.9 hPa | 1.78 mm | - | 18 W/m² | - |
| 1778113994 | 10° C | 65% | 1015.9 hPa | 0 mm | - | 15 W/m² | - |
| 1778113689 | 10° C | 60% | 1015.7 hPa | 0 mm | - | 19 W/m² | - |
| 1778113386 | 9.44° C | 61% | 1015.6 hPa | 0 mm | - | 30 W/m² | - |
| 1778113083 | 10° C | 61% | 1015.7 hPa | 0 mm | - | 18 W/m² | - |
| 1778112780 | 11.67° C | 46% | 1015 hPa | 0 mm | - | 27 W/m² | - |
| 1778112477 | 11.67° C | 47% | 1014.5 hPa | 0 mm | - | 38 W/m² | - |
| 1778112172 | 12.22° C | 47% | 1014.6 hPa | 0 mm | - | 60 W/m² | - |
| 1778111869 | 11.67° C | 49% | 1014.4 hPa | 0 mm | - | 66 W/m² | - |
| 1778111564 | 12.22° C | 49% | 1014.3 hPa | 0 mm | - | 70 W/m² | - |
| 1778111262 | 12.78° C | 49% | 1014.8 hPa | 0 mm | - | 128 W/m² | - |
| 1778110959 | 12.22° C | 50% | 1014.4 hPa | 0 mm | - | 286 W/m² | - |
| 1778110657 | 12.22° C | 50% | 1014.5 hPa | 0 mm | - | 188 W/m² | - |
| 1778110353 | 13.33° C | 53% | 1014.6 hPa | 0 mm | - | 208 W/m² | - |
| 1778110050 | 12.78° C | 54% | 1014.4 hPa | 0 mm | - | 251 W/m² | - |
| 1778109750 | 12.78° C | 58% | 1014.5 hPa | 0 mm | - | 317 W/m² | - |
| 1778109448 | 11.67° C | 66% | 1014.5 hPa | 0 mm | - | 336 W/m² | - |
| 1778109146 | 10° C | 72% | 1014.5 hPa | 0 mm | - | 184 W/m² | - |
* Rain latest hour (hover to see other rain measurements)
** Current wind speed in m/s (hover to see current wind gust speed)